Time;durP1;ratioP1;P1;durP2;ratioP2;P2;SDS_P1;SDS_P2;PMS_P1;PMS_P2;Temp;Humidity;BMP_temperature;BMP_pressure;BME280_temperature;BME280_humidity;BME280_pressure;Samples;Min_cycle;Max_cycle;Signal;HPM_P1;HPM_P2
2023/02/04 00:01:06;;;;;;;59.28;28.35;;;;;;;;;;5034989;28;20033;-72
2023/02/04 00:03:32;;;;;;;63.63;29.58;;;;;;;;;;5032899;28;20143;-72
2023/02/04 00:05:58;;;;;;;114.13;41.17;;;;;;;;;;5034598;28;20033;-72
2023/02/04 00:08:24;;;;;;;134.27;49.45;;;;;;;;;;5039785;28;20119;-72
2023/02/04 00:10:50;;;;;;;109.00;44.67;;;;;;;;;;5032267;28;20036;-72
2023/02/04 00:13:16;;;;;;;94.40;39.53;;;;;;;;;;5029888;28;20390;-72
2023/02/04 00:15:42;;;;;;;79.18;34.03;;;;;;;;;;5036079;28;20045;-72
2023/02/04 00:18:08;;;;;;;57.95;26.52;;;;;;;;;;5038636;28;20025;-72
2023/02/04 00:20:34;;;;;;;52.10;27.05;;;;;;;;;;5038712;28;20038;-73
2023/02/04 00:23:00;;;;;;;52.25;26.05;;;;;;;;;;5042036;28;20028;-73
2023/02/04 00:25:26;;;;;;;39.78;21.85;;;;;;;;;;5039116;28;20082;-72
2023/02/04 00:27:52;;;;;;;35.92;20.92;;;;;;;;;;5038957;28;20029;-72
2023/02/04 00:30:18;;;;;;;43.75;25.80;;;;;;;;;;5037425;28;21075;-72
2023/02/04 00:32:44;;;;;;;47.78;25.92;;;;;;;;;;5037654;28;20037;-72
2023/02/04 00:35:10;;;;;;;45.70;23.58;;;;;;;;;;5038887;28;20831;-72
2023/02/04 00:37:36;;;;;;;36.85;20.55;;;;;;;;;;5036892;28;20029;-72
2023/02/04 00:40:02;;;;;;;43.10;21.63;;;;;;;;;;5035286;28;20029;-72
2023/02/04 00:42:28;;;;;;;47.88;25.98;;;;;;;;;;5039531;28;20045;-72
2023/02/04 00:44:54;;;;;;;47.97;24.73;;;;;;;;;;5039654;28;20078;-72
2023/02/04 00:47:21;;;;;;;63.83;30.33;;;;;;;;;;5040868;28;20151;-72
2023/02/04 00:49:47;;;;;;;74.97;33.55;;;;;;;;;;5037796;28;20048;-72
2023/02/04 00:52:13;;;;;;;75.90;33.55;;;;;;;;;;5018596;28;20043;-72
2023/02/04 00:54:39;;;;;;;69.38;29.60;;;;;;;;;;5042331;28;20059;-72
2023/02/04 00:57:05;;;;;;;68.07;31.73;;;;;;;;;;5038077;28;20017;-72
2023/02/04 00:59:31;;;;;;;75.65;33.67;;;;;;;;;;5034544;28;20682;-72
2023/02/04 01:01:57;;;;;;;84.15;38.85;;;;;;;;;;5042261;28;20040;-72
2023/02/04 01:04:24;;;;;;;77.93;37.42;;;;;;;;;;5026236;28;20037;-72
2023/02/04 01:06:50;;;;;;;92.57;43.30;;;;;;;;;;5038765;28;20478;-71
2023/02/04 01:09:16;;;;;;;89.20;42.70;;;;;;;;;;5035299;28;20049;-71
2023/02/04 01:11:42;;;;;;;73.65;37.40;;;;;;;;;;5036507;28;20025;-72
2023/02/04 01:14:08;;;;;;;78.13;38.10;;;;;;;;;;5041905;28;20154;-72
2023/02/04 01:16:34;;;;;;;61.70;31.33;;;;;;;;;;5040082;28;20024;-72
2023/02/04 01:19:00;;;;;;;50.97;24.65;;;;;;;;;;5041808;28;20034;-72
2023/02/04 01:21:26;;;;;;;37.47;20.55;;;;;;;;;;5044550;28;20032;-71
2023/02/04 01:23:52;;;;;;;39.40;21.75;;;;;;;;;;5039813;28;20419;-72
2023/02/04 01:26:18;;;;;;;33.60;18.17;;;;;;;;;;5039139;28;20040;-72
2023/02/04 01:28:44;;;;;;;29.95;15.68;;;;;;;;;;5038224;28;20067;-73
2023/02/04 01:31:10;;;;;;;29.73;16.15;;;;;;;;;;5037374;28;20040;-72
2023/02/04 01:33:36;;;;;;;26.88;15.70;;;;;;;;;;5038757;28;20041;-72
2023/02/04 01:36:02;;;;;;;30.38;14.80;;;;;;;;;;5033755;28;20078;-72
2023/02/04 01:38:28;;;;;;;41.45;22.52;;;;;;;;;;5035412;28;20037;-72
2023/02/04 01:40:54;;;;;;;68.13;34.13;;;;;;;;;;5018906;28;20026;-72
2023/02/04 01:43:21;;;;;;;60.05;29.80;;;;;;;;;;5039846;28;20064;-72
2023/02/04 01:45:48;;;;;;;64.53;35.03;;;;;;;;;;5036540;28;20028;-71
2023/02/04 01:48:19;;;;;;;70.75;34.45;;;;;;;;;;5039468;28;20051;-71
2023/02/04 01:50:59;;;;;;;80.75;37.30;;;;;;;;;;5034990;28;20037;-71
2023/02/04 01:53:26;;;;;;;71.50;33.25;;;;;;;;;;5032652;28;20140;-72
2023/02/04 01:55:52;;;;;;;73.28;36.22;;;;;;;;;;5035630;28;20072;-72
2023/02/04 01:58:18;;;;;;;68.43;34.58;;;;;;;;;;5033605;28;20041;-72
2023/02/04 02:00:44;;;;;;;55.50;29.23;;;;;;;;;;5033637;28;20510;-72
2023/02/04 02:03:11;;;;;;;100.22;38.63;;;;;;;;;;5033350;28;20025;-72
2023/02/04 02:05:42;;;;;;;81.85;31.48;;;;;;;;;;5031681;28;20029;-72
2023/02/04 02:08:09;;;;;;;93.80;37.05;;;;;;;;;;5037130;28;20925;-72
2023/02/04 02:10:36;;;;;;;84.85;34.90;;;;;;;;;;5032948;28;20029;-72
2023/02/04 02:13:03;;;;;;;65.72;30.25;;;;;;;;;;5028626;28;20398;-71
2023/02/04 02:15:29;;;;;;;63.78;30.70;;;;;;;;;;5031764;28;20029;-72
2023/02/04 02:17:55;;;;;;;48.30;23.67;;;;;;;;;;5034555;28;20029;-72
2023/02/04 02:20:22;;;;;;;46.00;22.75;;;;;;;;;;5036184;28;20060;-72
2023/02/04 02:23:01;;;;;;;36.78;19.35;;;;;;;;;;5036350;28;20029;-72
2023/02/04 02:25:27;;;;;;;40.92;18.92;;;;;;;;;;5037517;28;20059;-72
2023/02/04 02:27:53;;;;;;;37.65;20.10;;;;;;;;;;5037625;28;20590;-72
2023/02/04 02:30:19;;;;;;;61.38;33.67;;;;;;;;;;5037562;28;20037;-72
2023/02/04 02:32:47;;;;;;;46.13;24.50;;;;;;;;;;5039999;28;20034;-72
2023/02/04 02:35:13;;;;;;;49.67;26.30;;;;;;;;;;5042259;28;20032;-71
2023/02/04 02:37:39;;;;;;;47.47;24.30;;;;;;;;;;5033995;28;20032;-72
2023/02/04 02:40:06;;;;;;;45.35;23.90;;;;;;;;;;5039400;28;20162;-72
2023/02/04 02:42:32;;;;;;;46.80;25.83;;;;;;;;;;5034377;28;20542;-71
2023/02/04 02:44:58;;;;;;;61.58;33.15;;;;;;;;;;5042004;28;20044;-72
2023/02/04 02:47:25;;;;;;;35.88;17.60;;;;;;;;;;5033999;28;20041;-72
2023/02/04 02:49:51;;;;;;;36.63;17.85;;;;;;;;;;5043046;28;20052;-72
2023/02/04 02:52:18;;;;;;;24.73;13.43;;;;;;;;;;5036315;28;20040;-72
2023/02/04 02:54:44;;;;;;;27.17;15.07;;;;;;;;;;5040168;28;20048;-72
2023/02/04 02:57:12;;;;;;;26.42;14.38;;;;;;;;;;5023539;28;20033;-73
2023/02/04 02:59:38;;;;;;;25.17;13.43;;;;;;;;;;5037383;28;20033;-72
2023/02/04 03:02:05;;;;;;;24.67;15.30;;;;;;;;;;5041148;28;20040;-72
2023/02/04 03:04:32;;;;;;;33.25;18.63;;;;;;;;;;5034644;28;20056;-72
2023/02/04 03:06:58;;;;;;;39.90;22.17;;;;;;;;;;5021352;28;20033;-72
2023/02/04 03:09:25;;;;;;;40.40;21.85;;;;;;;;;;5039187;28;20663;-72
2023/02/04 03:11:51;;;;;;;43.00;23.38;;;;;;;;;;5034588;28;20497;-72
2023/02/04 03:14:17;;;;;;;36.42;20.52;;;;;;;;;;5033058;28;20071;-72
2023/02/04 03:16:43;;;;;;;38.35;21.30;;;;;;;;;;5030421;28;20029;-72
2023/02/04 03:19:10;;;;;;;36.90;20.67;;;;;;;;;;5035102;28;20029;-72
2023/02/04 03:21:36;;;;;;;36.95;20.67;;;;;;;;;;5037215;28;20037;-73
2023/02/04 03:24:03;;;;;;;32.88;17.33;;;;;;;;;;5032339;28;20037;-72
2023/02/04 03:26:29;;;;;;;27.83;14.13;;;;;;;;;;5035256;28;20048;-72
2023/02/04 03:28:55;;;;;;;30.60;14.43;;;;;;;;;;5032471;28;20037;-72
2023/02/04 03:31:21;;;;;;;26.55;13.05;;;;;;;;;;5032350;28;20060;-72
2023/02/04 03:33:47;;;;;;;23.50;13.60;;;;;;;;;;5032690;28;20084;-72
2023/02/04 03:36:13;;;;;;;24.17;13.77;;;;;;;;;;5034726;28;20067;-72
2023/02/04 03:38:40;;;;;;;22.83;12.20;;;;;;;;;;5040706;28;20033;-72
2023/02/04 03:41:06;;;;;;;24.95;13.48;;;;;;;;;;5036274;28;20037;-72
2023/02/04 03:43:32;;;;;;;23.42;12.82;;;;;;;;;;5033833;28;20438;-72
2023/02/04 03:45:58;;;;;;;21.73;11.82;;;;;;;;;;5038311;28;20148;-72
2023/02/04 03:48:24;;;;;;;22.73;13.88;;;;;;;;;;5030439;28;20033;-72
2023/02/04 03:50:50;;;;;;;19.23;10.30;;;;;;;;;;5020069;28;20084;-72
2023/02/04 03:53:16;;;;;;;18.10;9.35;;;;;;;;;;5031367;28;20033;-72
2023/02/04 03:55:42;;;;;;;18.52;12.05;;;;;;;;;;5036598;28;20529;-72
2023/02/04 03:58:08;;;;;;;19.20;10.43;;;;;;;;;;5032703;28;20018;-72
2023/02/04 04:00:34;;;;;;;21.77;12.43;;;;;;;;;;5037459;28;20040;-72
2023/02/04 04:03:00;;;;;;;23.50;12.63;;;;;;;;;;5035012;28;20021;-72
2023/02/04 04:05:27;;;;;;;19.52;11.82;;;;;;;;;;5031746;28;20037;-72
2023/02/04 04:07:53;;;;;;;19.92;10.90;;;;;;;;;;5034384;28;20063;-72
2023/02/04 04:10:19;;;;;;;19.95;12.57;;;;;;;;;;5040038;28;20052;-72
2023/02/04 04:12:45;;;;;;;20.60;12.65;;;;;;;;;;5036289;28;20037;-72
2023/02/04 04:15:11;;;;;;;20.55;12.20;;;;;;;;;;5036840;28;20041;-72
2023/02/04 04:17:37;;;;;;;17.40;11.23;;;;;;;;;;5034540;28;20102;-72
2023/02/04 04:20:03;;;;;;;21.27;10.68;;;;;;;;;;5038007;28;20033;-73
2023/02/04 04:22:29;;;;;;;19.40;12.00;;;;;;;;;;5036754;28;20087;-72
2023/02/04 04:24:55;;;;;;;24.25;13.45;;;;;;;;;;5041381;28;20558;-72
2023/02/04 04:27:21;;;;;;;23.13;12.23;;;;;;;;;;5032256;28;20041;-72
2023/02/04 04:29:47;;;;;;;22.10;11.88;;;;;;;;;;5040031;28;20044;-72
2023/02/04 04:32:13;;;;;;;23.10;12.27;;;;;;;;;;5032422;28;20391;-72
2023/02/04 04:34:39;;;;;;;22.23;11.52;;;;;;;;;;5023591;28;20584;-72
2023/02/04 04:37:05;;;;;;;22.65;13.18;;;;;;;;;;5033858;28;20029;-72
2023/02/04 04:39:31;;;;;;;20.77;11.77;;;;;;;;;;5038381;28;20048;-72
2023/02/04 04:41:57;;;;;;;20.77;12.23;;;;;;;;;;5036833;28;20042;-72
2023/02/04 04:44:23;;;;;;;19.45;12.32;;;;;;;;;;5042229;28;20463;-72
2023/02/04 04:46:51;;;;;;;27.48;14.98;;;;;;;;;;5034061;28;20091;-72
2023/02/04 04:49:16;;;;;;;27.15;14.23;;;;;;;;;;5034175;28;20040;-72
2023/02/04 04:51:43;;;;;;;25.85;14.50;;;;;;;;;;5035907;28;20037;-72
2023/02/04 04:54:09;;;;;;;28.20;16.92;;;;;;;;;;5033918;28;20065;-72
2023/02/04 04:56:35;;;;;;;31.52;17.05;;;;;;;;;;5031931;28;20072;-72
2023/02/04 04:59:02;;;;;;;27.23;17.02;;;;;;;;;;5033593;28;20044;-72
2023/02/04 05:01:28;;;;;;;24.85;17.08;;;;;;;;;;5031553;28;20034;-72
2023/02/04 05:03:54;;;;;;;30.48;15.95;;;;;;;;;;5031318;28;20513;-72
2023/02/04 05:06:24;;;;;;;25.50;14.95;;;;;;;;;;5036396;28;20049;-72
2023/02/04 05:08:53;;;;;;;26.10;16.80;;;;;;;;;;5039595;28;20024;-72
2023/02/04 05:11:19;;;;;;;23.80;14.65;;;;;;;;;;5042521;28;20116;-72
2023/02/04 05:13:45;;;;;;;23.77;14.65;;;;;;;;;;5037047;28;20040;-72
2023/02/04 05:16:11;;;;;;;27.38;15.90;;;;;;;;;;5040661;28;20041;-72
2023/02/04 05:18:37;;;;;;;21.23;13.27;;;;;;;;;;5041244;28;20029;-72
2023/02/04 05:21:03;;;;;;;23.90;12.20;;;;;;;;;;5038112;28;20066;-72
2023/02/04 05:23:30;;;;;;;22.85;10.50;;;;;;;;;;5035969;28;20029;-72
2023/02/04 05:25:56;;;;;;;16.80;10.45;;;;;;;;;;5044110;28;20063;-73
2023/02/04 05:28:22;;;;;;;22.48;13.93;;;;;;;;;;5040897;28;20557;-72
2023/02/04 05:30:48;;;;;;;17.73;10.75;;;;;;;;;;5023293;28;20045;-73
2023/02/04 05:33:14;;;;;;;19.67;12.10;;;;;;;;;;5037377;28;20037;-73
2023/02/04 05:35:40;;;;;;;26.48;14.57;;;;;;;;;;5043792;28;20037;-72
2023/02/04 05:38:06;;;;;;;26.10;17.38;;;;;;;;;;5032741;28;20036;-72
2023/02/04 05:40:32;;;;;;;26.95;16.98;;;;;;;;;;5037423;28;20029;-72
2023/02/04 05:42:58;;;;;;;31.80;18.13;;;;;;;;;;5034785;28;20832;-73
2023/02/04 05:45:24;;;;;;;21.15;14.80;;;;;;;;;;5043094;28;20047;-72
2023/02/04 05:47:50;;;;;;;22.35;13.82;;;;;;;;;;5038609;28;20132;-72
2023/02/04 05:50:16;;;;;;;24.42;15.27;;;;;;;;;;5036849;28;20029;-72
2023/02/04 05:52:42;;;;;;;24.30;16.80;;;;;;;;;;5041753;28;20036;-72
2023/02/04 05:55:09;;;;;;;28.10;17.17;;;;;;;;;;5034521;28;20075;-72
2023/02/04 05:57:35;;;;;;;29.30;18.77;;;;;;;;;;5033567;28;20057;-72
2023/02/04 06:00:01;;;;;;;29.73;19.27;;;;;;;;;;5036605;28;20036;-72
2023/02/04 06:02:27;;;;;;;29.23;18.58;;;;;;;;;;5042380;28;20033;-72
2023/02/04 06:04:53;;;;;;;27.17;17.60;;;;;;;;;;5037872;28;20037;-71
2023/02/04 06:07:19;;;;;;;26.77;16.02;;;;;;;;;;5042698;28;20378;-72
2023/02/04 06:09:45;;;;;;;22.73;13.45;;;;;;;;;;5038435;28;20037;-72
2023/02/04 06:12:11;;;;;;;30.38;14.55;;;;;;;;;;5037336;28;20033;-72
2023/02/04 06:14:37;;;;;;;22.83;14.60;;;;;;;;;;5039761;28;20106;-72
2023/02/04 06:17:03;;;;;;;23.58;13.57;;;;;;;;;;5041214;28;20430;-72
2023/02/04 06:19:29;;;;;;;22.25;13.05;;;;;;;;;;5036039;28;20387;-72
2023/02/04 06:21:55;;;;;;;23.83;14.25;;;;;;;;;;5033193;28;20033;-72
2023/02/04 06:24:21;;;;;;;19.10;13.05;;;;;;;;;;5038025;28;20131;-73
2023/02/04 06:26:47;;;;;;;21.75;14.00;;;;;;;;;;5030836;28;20043;-72
2023/02/04 06:29:13;;;;;;;26.02;16.10;;;;;;;;;;5038434;28;20025;-73
2023/02/04 06:31:39;;;;;;;30.88;17.02;;;;;;;;;;5041072;28;20375;-73
2023/02/04 06:34:05;;;;;;;27.67;17.50;;;;;;;;;;5041084;28;20792;-73
2023/02/04 06:36:31;;;;;;;30.10;18.83;;;;;;;;;;5032199;28;20033;-73
2023/02/04 06:38:57;;;;;;;31.90;16.48;;;;;;;;;;5037088;28;20040;-72
2023/02/04 06:41:24;;;;;;;25.55;15.80;;;;;;;;;;5031900;28;20034;-73
2023/02/04 06:43:50;;;;;;;30.98;18.65;;;;;;;;;;5038469;28;20116;-73
2023/02/04 06:46:16;;;;;;;30.90;20.08;;;;;;;;;;5038358;28;20043;-72
2023/02/04 06:48:42;;;;;;;28.58;17.23;;;;;;;;;;5031385;28;20029;-73
2023/02/04 06:51:08;;;;;;;25.38;16.75;;;;;;;;;;5031499;28;20033;-72
2023/02/04 06:53:34;;;;;;;28.63;17.30;;;;;;;;;;5034869;28;20026;-72
2023/02/04 06:56:00;;;;;;;27.63;17.08;;;;;;;;;;5014840;28;20032;-72
2023/02/04 06:58:26;;;;;;;32.95;19.80;;;;;;;;;;5033856;28;20027;-73
2023/02/04 07:00:52;;;;;;;33.45;19.48;;;;;;;;;;5033808;28;20531;-73
2023/02/04 07:03:18;;;;;;;24.05;15.55;;;;;;;;;;5033406;28;20124;-73
2023/02/04 07:05:44;;;;;;;27.73;16.27;;;;;;;;;;5033205;28;20037;-73
2023/02/04 07:08:10;;;;;;;27.65;18.02;;;;;;;;;;5038587;28;20033;-73
2023/02/04 07:10:36;;;;;;;38.58;24.38;;;;;;;;;;5035168;28;20029;-73
2023/02/04 07:13:02;;;;;;;34.78;23.05;;;;;;;;;;5030798;28;20139;-73
2023/02/04 07:15:28;;;;;;;26.80;18.70;;;;;;;;;;5036412;28;20170;-73
2023/02/04 07:17:54;;;;;;;27.65;18.45;;;;;;;;;;5038854;28;20478;-73
2023/02/04 07:20:20;;;;;;;30.08;17.00;;;;;;;;;;5030751;28;20033;-73
2023/02/04 07:22:46;;;;;;;28.30;17.40;;;;;;;;;;5030772;28;20029;-73
2023/02/04 07:25:14;;;;;;;26.00;15.63;;;;;;;;;;5034610;28;20029;-73
2023/02/04 07:27:40;;;;;;;26.65;16.40;;;;;;;;;;5035039;28;20034;-73
2023/02/04 07:30:07;;;;;;;29.50;17.17;;;;;;;;;;5033929;28;20036;-73
2023/02/04 07:32:33;;;;;;;24.27;15.45;;;;;;;;;;5019955;28;20037;-73
2023/02/04 07:34:59;;;;;;;26.80;16.00;;;;;;;;;;5032624;28;20052;-73
2023/02/04 07:37:25;;;;;;;32.67;19.40;;;;;;;;;;5030682;28;20036;-73
2023/02/04 07:39:51;;;;;;;31.45;20.05;;;;;;;;;;5032603;28;20029;-73
2023/02/04 07:42:17;;;;;;;29.98;17.38;;;;;;;;;;5035742;28;20046;-72
2023/02/04 07:44:43;;;;;;;21.67;14.38;;;;;;;;;;5032658;28;20489;-73
2023/02/04 07:47:09;;;;;;;26.13;15.77;;;;;;;;;;5033589;28;20075;-73
2023/02/04 07:49:35;;;;;;;23.27;14.68;;;;;;;;;;5034886;28;20025;-73
2023/02/04 07:52:01;;;;;;;25.30;14.70;;;;;;;;;;5035017;28;20476;-72
2023/02/04 07:54:27;;;;;;;25.90;15.02;;;;;;;;;;5029968;28;20025;-72
2023/02/04 07:56:53;;;;;;;27.13;15.05;;;;;;;;;;5034367;28;20033;-73
2023/02/04 07:59:19;;;;;;;30.45;19.25;;;;;;;;;;5032061;28;20110;-73
2023/02/04 08:01:46;;;;;;;27.85;17.63;;;;;;;;;;5032822;28;20061;-73
2023/02/04 08:04:12;;;;;;;33.20;17.70;;;;;;;;;;5033775;28;20071;-74
2023/02/04 08:06:38;;;;;;;32.10;17.88;;;;;;;;;;5037461;28;20039;-73
2023/02/04 08:09:04;;;;;;;28.67;18.58;;;;;;;;;;5035332;28;20028;-72
2023/02/04 08:11:31;;;;;;;28.17;16.80;;;;;;;;;;5032077;28;20087;-73
2023/02/04 08:13:57;;;;;;;27.13;17.65;;;;;;;;;;5033318;28;20040;-73
2023/02/04 08:16:23;;;;;;;31.27;20.30;;;;;;;;;;5035180;28;20029;-72
2023/02/04 08:18:49;;;;;;;31.00;20.95;;;;;;;;;;5037085;28;20041;-72
2023/02/04 08:21:15;;;;;;;32.97;23.85;;;;;;;;;;5036121;28;20029;-73
2023/02/04 08:23:41;;;;;;;36.05;23.30;;;;;;;;;;5033959;28;20033;-73
2023/02/04 08:26:10;;;;;;;34.13;23.77;;;;;;;;;;5032851;28;20111;-73
2023/02/04 08:28:37;;;;;;;32.85;21.95;;;;;;;;;;5033823;28;20378;-73
2023/02/04 08:31:04;;;;;;;29.15;18.90;;;;;;;;;;5037939;28;20035;-73
2023/02/04 08:33:30;;;;;;;36.40;23.35;;;;;;;;;;5021569;28;20372;-72
2023/02/04 08:35:56;;;;;;;37.00;24.30;;;;;;;;;;5037209;28;20033;-73
2023/02/04 08:38:22;;;;;;;41.67;25.27;;;;;;;;;;5041243;28;20025;-72
2023/02/04 08:40:48;;;;;;;35.42;25.65;;;;;;;;;;5041155;28;20040;-73
2023/02/04 08:43:14;;;;;;;36.35;20.45;;;;;;;;;;5038270;28;20470;-73
2023/02/04 08:45:40;;;;;;;33.25;18.90;;;;;;;;;;5040732;28;20043;-73
2023/02/04 08:48:08;;;;;;;28.73;19.00;;;;;;;;;;5037428;28;20036;-73
2023/02/04 08:50:34;;;;;;;35.28;20.15;;;;;;;;;;5038122;28;20104;-73
2023/02/04 08:53:00;;;;;;;28.77;18.15;;;;;;;;;;5040411;28;20033;-73
2023/02/04 08:55:26;;;;;;;27.40;17.95;;;;;;;;;;5038236;28;20033;-73
2023/02/04 08:57:52;;;;;;;35.15;23.05;;;;;;;;;;5040797;28;20037;-73
2023/02/04 09:00:18;;;;;;;35.30;23.90;;;;;;;;;;5039097;28;20029;-73
2023/02/04 09:02:44;;;;;;;47.10;30.75;;;;;;;;;;5039004;28;20030;-73
2023/02/04 09:05:10;;;;;;;37.15;25.77;;;;;;;;;;5042948;28;20033;-73
2023/02/04 09:07:36;;;;;;;34.90;21.25;;;;;;;;;;5041293;28;20037;-73
2023/02/04 09:10:02;;;;;;;31.75;18.85;;;;;;;;;;5041805;28;20083;-73
2023/02/04 09:12:28;;;;;;;30.58;18.80;;;;;;;;;;5047512;28;20036;-73
2023/02/04 09:14:57;;;;;;;30.17;16.98;;;;;;;;;;5040246;28;20055;-73
2023/02/04 09:17:24;;;;;;;30.17;17.92;;;;;;;;;;5044496;28;20040;-73
2023/02/04 09:19:50;;;;;;;30.65;21.67;;;;;;;;;;5039460;28;20030;-74
2023/02/04 09:22:16;;;;;;;31.75;21.92;;;;;;;;;;5038490;28;20040;-73
2023/02/04 09:24:42;;;;;;;29.55;18.58;;;;;;;;;;5037158;28;20029;-73
2023/02/04 09:27:08;;;;;;;27.17;17.25;;;;;;;;;;5040376;28;20041;-73
2023/02/04 09:29:34;;;;;;;27.02;15.25;;;;;;;;;;5036323;28;20033;-73
2023/02/04 09:32:00;;;;;;;19.33;12.55;;;;;;;;;;5018301;28;20032;-72
2023/02/04 09:34:26;;;;;;;19.95;12.85;;;;;;;;;;5032447;28;20031;-72
2023/02/04 09:36:52;;;;;;;20.35;13.82;;;;;;;;;;5021919;28;20129;-73
2023/02/04 09:39:18;;;;;;;20.60;12.77;;;;;;;;;;5033291;28;20919;-73
2023/02/04 09:41:44;;;;;;;20.33;10.52;;;;;;;;;;5035985;28;20045;-73
2023/02/04 09:44:13;;;;;;;21.65;12.27;;;;;;;;;;5040134;28;20053;-73
2023/02/04 09:46:40;;;;;;;18.95;12.52;;;;;;;;;;5036707;28;20048;-73
2023/02/04 09:49:09;;;;;;;19.58;13.02;;;;;;;;;;5037021;28;20059;-73
2023/02/04 09:51:35;;;;;;;28.15;12.65;;;;;;;;;;5035357;28;20034;-73
2023/02/04 09:54:06;;;;;;;24.48;14.90;;;;;;;;;;5036203;28;20395;-73
2023/02/04 09:56:33;;;;;;;27.05;16.00;;;;;;;;;;5033189;28;20984;-73
2023/02/04 09:58:58;;;;;;;27.00;17.83;;;;;;;;;;5035559;28;20025;-73
2023/02/04 10:01:27;;;;;;;33.30;20.73;;;;;;;;;;5036483;28;20075;-73
2023/02/04 10:03:55;;;;;;;24.45;14.80;;;;;;;;;;5034283;28;20098;-73
2023/02/04 10:06:23;;;;;;;27.10;15.82;;;;;;;;;;5036825;28;20078;-73
2023/02/04 10:08:50;;;;;;;23.95;14.00;;;;;;;;;;5033641;28;20866;-73
2023/02/04 10:11:18;;;;;;;21.52;13.88;;;;;;;;;;5033668;28;20025;-73
2023/02/04 10:13:52;;;;;;;22.58;12.48;;;;;;;;;;5037148;28;20399;-73
2023/02/04 10:16:29;;;;;;;24.55;13.43;;;;;;;;;;5034855;28;20098;-73
2023/02/04 10:19:02;;;;;;;21.73;12.05;;;;;;;;;;5037578;28;20108;-73
2023/02/04 10:21:30;;;;;;;20.52;13.23;;;;;;;;;;5038247;28;20107;-73
2023/02/04 10:23:57;;;;;;;18.75;11.77;;;;;;;;;;5035153;28;20078;-73
2023/02/04 10:26:26;;;;;;;22.85;16.13;;;;;;;;;;5034720;28;20457;-73
2023/02/04 10:28:57;;;;;;;19.00;12.07;;;;;;;;;;5033501;28;20120;-73
2023/02/04 10:31:32;;;;;;;24.40;14.10;;;;;;;;;;5033414;28;20418;-73
2023/02/04 10:34:07;;;;;;;25.92;15.80;;;;;;;;;;5033636;28;20613;-73
2023/02/04 10:36:33;;;;;;;22.85;13.98;;;;;;;;;;5034302;28;20037;-73
2023/02/04 10:39:09;;;;;;;23.15;13.15;;;;;;;;;;5032176;28;20029;-73
2023/02/04 10:41:38;;;;;;;23.73;13.10;;;;;;;;;;5035289;28;20095;-73
2023/02/04 10:44:05;;;;;;;22.55;12.00;;;;;;;;;;5033020;28;20021;-73
2023/02/04 10:46:32;;;;;;;19.13;10.93;;;;;;;;;;5034377;28;20381;-73
2023/02/04 10:48:58;;;;;;;16.63;10.80;;;;;;;;;;5034195;28;20108;-73
2023/02/04 10:51:24;;;;;;;21.35;10.75;;;;;;;;;;5033043;28;20034;-73
2023/02/04 10:56:35;;;;;;;13.00;6.90;;;;;;;;;;5038815;28;20055;-73
2023/02/04 10:59:01;;;;;;;16.77;9.38;;;;;;;;;;5035988;28;20049;-73
2023/02/04 11:01:28;;;;;;;21.88;10.63;;;;;;;;;;5033209;28;20037;-74
2023/02/04 11:03:54;;;;;;;18.60;8.50;;;;;;;;;;5034484;28;20025;-74
2023/02/04 11:06:22;;;;;;;19.75;10.75;;;;;;;;;;5021820;28;20041;-73
2023/02/04 11:08:50;;;;;;;23.90;14.23;;;;;;;;;;5038782;28;20819;-73
2023/02/04 11:11:24;;;;;;;15.77;9.00;;;;;;;;;;5031547;28;20038;-73
2023/02/04 11:13:49;;;;;;;15.45;8.68;;;;;;;;;;5033049;28;20033;-73
2023/02/04 11:16:18;;;;;;;15.88;7.40;;;;;;;;;;5037729;28;20043;-73
2023/02/04 11:18:49;;;;;;;11.70;6.47;;;;;;;;;;5038869;28;20025;-72
2023/02/04 11:21:21;;;;;;;11.13;5.72;;;;;;;;;;5032602;28;20049;-73
2023/02/04 11:23:48;;;;;;;9.13;5.07;;;;;;;;;;5033346;28;20400;-74
2023/02/04 11:26:17;;;;;;;10.32;6.20;;;;;;;;;;5034634;28;20450;-73
2023/02/04 11:28:46;;;;;;;12.35;5.88;;;;;;;;;;5035014;28;20029;-73
2023/02/04 11:31:15;;;;;;;12.65;5.88;;;;;;;;;;5035067;28;20029;-73
2023/02/04 11:33:42;;;;;;;11.52;5.80;;;;;;;;;;5032311;28;20018;-73
2023/02/04 11:36:10;;;;;;;11.38;5.85;;;;;;;;;;5031106;28;20111;-73
2023/02/04 11:38:37;;;;;;;9.65;5.18;;;;;;;;;;5032739;28;20024;-73
2023/02/04 11:41:04;;;;;;;12.13;4.63;;;;;;;;;;5037956;28;20095;-73
2023/02/04 11:43:33;;;;;;;10.32;5.25;;;;;;;;;;5033100;28;20700;-72
2023/02/04 11:46:03;;;;;;;13.30;5.43;;;;;;;;;;5034457;28;20037;-73
2023/02/04 11:48:29;;;;;;;9.55;5.80;;;;;;;;;;5032072;28;20041;-73
2023/02/04 11:50:55;;;;;;;9.55;6.50;;;;;;;;;;5033665;28;20033;-73
2023/02/04 11:53:23;;;;;;;8.95;5.10;;;;;;;;;;5031631;28;20040;-73
2023/02/04 11:55:49;;;;;;;9.35;6.10;;;;;;;;;;5028402;28;20094;-73
2023/02/04 11:58:17;;;;;;;12.90;7.13;;;;;;;;;;5030980;28;20120;-73
2023/02/04 12:00:43;;;;;;;15.20;6.78;;;;;;;;;;5031263;28;20038;-73
2023/02/04 12:03:38;;;;;;;10.85;6.28;;;;;;;;;;5032149;28;20547;-73
2023/02/04 12:06:05;;;;;;;10.30;5.95;;;;;;;;;;5018817;28;20076;-73
2023/02/04 12:08:32;;;;;;;10.25;5.78;;;;;;;;;;5029271;28;20033;-73
2023/02/04 12:10:58;;;;;;;9.55;5.72;;;;;;;;;;5037648;28;20035;-73
2023/02/04 12:13:25;;;;;;;10.15;5.45;;;;;;;;;;5036739;28;20071;-73
2023/02/04 12:16:00;;;;;;;12.10;6.25;;;;;;;;;;5041165;28;20031;-73
2023/02/04 12:18:29;;;;;;;10.18;5.70;;;;;;;;;;5030296;28;20033;-71
2023/02/04 12:20:58;;;;;;;12.77;6.57;;;;;;;;;;5032104;28;20487;-73
2023/02/04 12:23:25;;;;;;;9.27;5.95;;;;;;;;;;5036694;28;20036;-73
2023/02/04 12:25:52;;;;;;;13.77;7.50;;;;;;;;;;5035581;28;20482;-73
2023/02/04 12:28:18;;;;;;;12.25;6.90;;;;;;;;;;5034940;28;20746;-73
2023/02/04 12:30:44;;;;;;;12.18;6.00;;;;;;;;;;5037480;28;20543;-73
2023/02/04 12:33:10;;;;;;;11.20;6.38;;;;;;;;;;5033115;28;20083;-73
2023/02/04 12:35:36;;;;;;;13.32;7.55;;;;;;;;;;5035127;28;20052;-73
2023/02/04 12:38:02;;;;;;;19.30;11.57;;;;;;;;;;5033204;28;20108;-73
2023/02/04 12:40:28;;;;;;;15.80;6.88;;;;;;;;;;5037333;28;20029;-73
2023/02/04 12:42:54;;;;;;;10.10;5.57;;;;;;;;;;5038622;28;20064;-73
2023/02/04 12:45:20;;;;;;;9.70;5.90;;;;;;;;;;5031714;28;20038;-73
2023/02/04 12:47:46;;;;;;;13.60;8.27;;;;;;;;;;5032645;28;20041;-73
2023/02/04 12:50:14;;;;;;;15.77;7.80;;;;;;;;;;5038096;28;20052;-73
2023/02/04 12:52:40;;;;;;;15.57;8.35;;;;;;;;;;5033320;28;20074;-73
2023/02/04 12:55:06;;;;;;;11.93;6.82;;;;;;;;;;5015541;28;20128;-73
2023/02/04 12:57:33;;;;;;;9.82;6.32;;;;;;;;;;5034047;28;20037;-73
2023/02/04 13:00:00;;;;;;;12.25;6.40;;;;;;;;;;5034173;28;20063;-74
2023/02/04 13:02:27;;;;;;;9.02;5.15;;;;;;;;;;5034931;28;20516;-73
2023/02/04 13:04:53;;;;;;;8.07;5.10;;;;;;;;;;5033106;28;20025;-73
2023/02/04 13:07:20;;;;;;;9.18;5.55;;;;;;;;;;5033175;28;20073;-73
2023/02/04 13:09:47;;;;;;;8.88;4.88;;;;;;;;;;5034013;28;20095;-73
2023/02/04 13:12:13;;;;;;;7.55;4.90;;;;;;;;;;5034028;28;20032;-74
2023/02/04 13:14:42;;;;;;;9.35;5.40;;;;;;;;;;5031609;28;20037;-73
2023/02/04 13:17:08;;;;;;;9.80;5.60;;;;;;;;;;5034320;28;20040;-73
2023/02/04 13:19:34;;;;;;;9.10;5.32;;;;;;;;;;5016321;28;20451;-73
2023/02/04 13:22:01;;;;;;;7.15;3.97;;;;;;;;;;5028191;28;20040;-73
2023/02/04 13:24:27;;;;;;;8.32;4.90;;;;;;;;;;5031370;28;20026;-73
2023/02/04 13:26:53;;;;;;;11.10;5.32;;;;;;;;;;5034779;28;20082;-73
2023/02/04 13:29:20;;;;;;;6.72;4.13;;;;;;;;;;5034748;28;20037;-73
2023/02/04 13:31:46;;;;;;;10.25;4.55;;;;;;;;;;5039476;28;20044;-73
2023/02/04 13:34:12;;;;;;;10.52;4.60;;;;;;;;;;5039626;28;20037;-73
2023/02/04 13:36:39;;;;;;;7.90;4.50;;;;;;;;;;5034216;28;20105;-73
2023/02/04 13:39:05;;;;;;;10.90;5.35;;;;;;;;;;5033950;28;20137;-73
2023/02/04 13:41:31;;;;;;;12.82;6.78;;;;;;;;;;5034690;28;20028;-73
2023/02/04 13:43:57;;;;;;;13.57;6.95;;;;;;;;;;5034773;28;20134;-73
2023/02/04 13:46:23;;;;;;;13.38;7.90;;;;;;;;;;5033742;28;20041;-73
2023/02/04 13:48:49;;;;;;;13.20;5.97;;;;;;;;;;5037060;28;20043;-73
2023/02/04 13:51:16;;;;;;;13.07;6.40;;;;;;;;;;5034906;28;20090;-73
2023/02/04 13:53:42;;;;;;;10.25;6.13;;;;;;;;;;5018465;28;20072;-73
2023/02/04 13:56:08;;;;;;;13.65;7.03;;;;;;;;;;5032855;28;20391;-73
2023/02/04 13:58:34;;;;;;;15.20;7.18;;;;;;;;;;5023990;28;20112;-73
2023/02/04 14:01:00;;;;;;;23.27;13.10;;;;;;;;;;5040675;28;20079;-73
2023/02/04 14:03:26;;;;;;;12.88;6.43;;;;;;;;;;5036765;28;20030;-73
2023/02/04 14:05:53;;;;;;;11.27;6.68;;;;;;;;;;5036425;28;20116;-73
2023/02/04 14:08:19;;;;;;;12.60;7.32;;;;;;;;;;5040816;28;20112;-73
2023/02/04 14:10:46;;;;;;;9.25;5.88;;;;;;;;;;5035984;28;20063;-73
2023/02/04 14:13:12;;;;;;;9.80;5.93;;;;;;;;;;5034378;28;20042;-73
2023/02/04 14:15:40;;;;;;;10.57;6.30;;;;;;;;;;5037051;28;20097;-73
2023/02/04 14:18:06;;;;;;;12.13;6.82;;;;;;;;;;5041772;28;20059;-73
2023/02/04 14:20:32;;;;;;;10.95;3.47;;;;;;;;;;5037848;28;20175;-72